createdAt,value
2022-07-31T00:00:10.886Z,910.10
2022-07-31T00:01:10.864Z,913.40
2022-07-31T00:02:10.867Z,912.10
2022-07-31T00:03:10.891Z,904.30
2022-07-31T00:04:10.835Z,902.70
2022-07-31T00:05:10.825Z,904.90
2022-07-31T00:06:10.967Z,898.80
2022-07-31T00:07:10.787Z,897.60
2022-07-31T00:08:10.785Z,895.50
2022-07-31T00:09:48.980Z,903.30
2022-07-31T00:10:11.830Z,904.90
2022-07-31T00:11:10.745Z,897.10
2022-07-31T00:12:10.736Z,900.50
2022-07-31T00:13:10.715Z,895.20
2022-07-31T00:14:10.715Z,908.40
2022-07-31T00:15:10.710Z,908.40
2022-07-31T00:16:10.679Z,909.40
2022-07-31T00:17:10.693Z,896.70
2022-07-31T00:18:10.656Z,902.10
2022-07-31T00:19:10.639Z,897.00
2022-07-31T00:20:10.615Z,893.70
2022-07-31T00:21:10.608Z,898.30
2022-07-31T00:22:10.618Z,899.10
2022-07-31T00:23:10.982Z,900.20
2022-07-31T00:24:10.580Z,897.50
2022-07-31T00:25:10.557Z,908.70
2022-07-31T00:26:10.556Z,910.50
2022-07-31T00:27:10.531Z,901.70
2022-07-31T00:28:10.607Z,907.60
2022-07-31T00:29:10.548Z,909.10
2022-07-31T00:30:11.488Z,906.80
2022-07-31T00:31:10.469Z,913.90
2022-07-31T00:32:10.477Z,911.00
2022-07-31T00:33:10.447Z,927.10
2022-07-31T00:34:10.438Z,915.00
2022-07-31T00:35:10.433Z,916.00
2022-07-31T00:36:10.412Z,913.10
2022-07-31T00:37:10.389Z,910.10
2022-07-31T00:38:36.262Z,925.80
2022-07-31T00:39:11.519Z,925.10
2022-07-31T00:40:10.357Z,925.40
2022-07-31T00:41:10.343Z,917.40
2022-07-31T00:42:10.329Z,915.70
2022-07-31T00:43:10.331Z,911.90
2022-07-31T00:44:12.486Z,907.70
2022-07-31T00:45:10.307Z,919.30
2022-07-31T00:46:13.599Z,918.70
2022-07-31T00:47:10.261Z,911.80
2022-07-31T00:48:10.264Z,913.30
2022-07-31T00:49:10.611Z,919.00
2022-07-31T00:50:10.411Z,926.30
2022-07-31T00:51:10.200Z,917.10
2022-07-31T00:52:10.205Z,925.50
2022-07-31T00:53:10.179Z,918.30
2022-07-31T00:54:10.182Z,917.40
2022-07-31T00:55:11.163Z,923.00
2022-07-31T00:56:10.142Z,932.40
2022-07-31T00:57:10.122Z,915.70
2022-07-31T00:58:10.132Z,915.70
2022-07-31T00:59:10.100Z,907.90
2022-07-31T01:00:10.095Z,919.20
2022-07-31T01:01:10.352Z,922.70
2022-07-31T01:02:10.065Z,914.70
2022-07-31T01:03:10.055Z,914.80
2022-07-31T01:04:15.376Z,916.40
2022-07-31T01:05:11.022Z,913.00
2022-07-31T01:06:10.016Z,910.70
2022-07-31T01:07:09.992Z,910.10
2022-07-31T01:08:09.984Z,916.70
2022-07-31T01:09:09.963Z,922.80
2022-07-31T01:10:09.985Z,910.90
2022-07-31T01:11:09.943Z,913.60
2022-07-31T01:12:09.997Z,903.80
2022-07-31T01:13:09.928Z,919.30
2022-07-31T01:14:09.911Z,899.70
2022-07-31T01:15:09.885Z,903.00
2022-07-31T01:16:09.885Z,904.90
2022-07-31T01:17:09.867Z,895.70
2022-07-31T01:18:09.854Z,898.10
2022-07-31T01:19:09.838Z,901.30
2022-07-31T01:20:09.833Z,894.80
2022-07-31T01:21:09.806Z,895.50
2022-07-31T01:22:34.242Z,896.40
2022-07-31T01:23:11.057Z,886.60
2022-07-31T01:24:09.775Z,897.70
2022-07-31T01:25:09.767Z,897.40
2022-07-31T01:26:09.746Z,891.40
2022-07-31T01:27:09.732Z,882.80
2022-07-31T01:28:09.717Z,896.00
2022-07-31T01:29:09.707Z,896.00
2022-07-31T01:30:09.697Z,895.30
2022-07-31T01:31:27.092Z,895.50
2022-07-31T01:32:10.667Z,896.70
2022-07-31T01:33:09.647Z,892.20
2022-07-31T01:34:09.821Z,894.10
2022-07-31T01:35:09.621Z,885.80
2022-07-31T01:36:09.619Z,889.70
2022-07-31T01:37:10.466Z,888.00
2022-07-31T01:38:09.588Z,881.40
2022-07-31T01:39:09.570Z,889.60
2022-07-31T01:40:09.568Z,887.50
2022-07-31T01:41:09.547Z,875.30
2022-07-31T01:42:09.529Z,882.10
2022-07-31T01:43:09.528Z,877.30
2022-07-31T01:44:13.838Z,881.50
2022-07-31T01:45:09.569Z,875.80
2022-07-31T01:46:09.500Z,877.10
2022-07-31T01:47:09.461Z,880.80
2022-07-31T01:48:09.459Z,876.50
2022-07-31T01:49:09.514Z,873.50
2022-07-31T01:50:09.458Z,880.20
2022-07-31T01:51:10.408Z,875.20
2022-07-31T01:52:09.418Z,880.90
2022-07-31T01:53:09.389Z,873.00
2022-07-31T01:54:09.393Z,873.50
2022-07-31T01:55:09.359Z,880.10
2022-07-31T01:56:09.581Z,871.10
2022-07-31T01:57:09.362Z,880.90
2022-07-31T01:58:09.329Z,869.80
2022-07-31T01:59:20.151Z,878.30
2022-07-31T02:00:23.514Z,877.10
2022-07-31T02:01:11.324Z,884.60
2022-07-31T02:02:10.037Z,883.10
2022-07-31T02:03:10.384Z,878.20
2022-07-31T02:04:10.435Z,876.60
2022-07-31T02:05:09.231Z,882.00
2022-07-31T02:06:09.220Z,877.50
2022-07-31T02:07:09.492Z,872.70
2022-07-31T02:08:09.191Z,867.90
2022-07-31T02:09:09.171Z,866.10
2022-07-31T02:10:09.170Z,861.40
2022-07-31T02:11:09.153Z,857.00
2022-07-31T02:12:09.710Z,857.40
2022-07-31T02:13:09.121Z,865.40
2022-07-31T02:14:09.121Z,862.90
2022-07-31T02:15:09.094Z,865.80
2022-07-31T02:16:09.089Z,873.70
2022-07-31T02:17:09.075Z,870.70
2022-07-31T02:18:09.314Z,871.40
2022-07-31T02:19:09.045Z,869.30
2022-07-31T02:20:09.051Z,865.20
2022-07-31T02:21:09.853Z,871.60
2022-07-31T02:22:09.006Z,886.70
2022-07-31T02:23:08.994Z,880.40
2022-07-31T02:24:08.994Z,872.50
2022-07-31T02:25:08.973Z,877.00
2022-07-31T02:26:08.954Z,864.20
2022-07-31T02:27:57.708Z,872.20
2022-07-31T02:28:10.468Z,869.40
2022-07-31T02:29:19.524Z,879.20
2022-07-31T02:30:09.916Z,874.80
2022-07-31T02:31:08.885Z,876.50
2022-07-31T02:32:08.869Z,871.80
2022-07-31T02:33:08.856Z,866.20
2022-07-31T02:34:08.857Z,876.90
2022-07-31T02:35:08.835Z,877.40
2022-07-31T02:36:08.823Z,874.10
2022-07-31T02:37:08.814Z,860.40
2022-07-31T02:38:08.794Z,854.80
2022-07-31T02:39:09.909Z,850.90
2022-07-31T02:40:08.776Z,847.70
2022-07-31T02:41:08.757Z,849.90
2022-07-31T02:42:08.740Z,853.80
2022-07-31T02:43:08.733Z,854.40
2022-07-31T02:44:08.707Z,868.60
2022-07-31T02:45:08.702Z,876.50
2022-07-31T02:46:08.695Z,884.20
2022-07-31T02:47:08.679Z,873.30
2022-07-31T02:48:08.657Z,886.30
2022-07-31T02:49:08.740Z,887.20
2022-07-31T02:50:08.964Z,883.20
2022-07-31T02:51:08.631Z,885.40
2022-07-31T02:52:08.615Z,887.10
2022-07-31T02:53:08.610Z,892.20
2022-07-31T02:54:08.578Z,881.50
2022-07-31T02:55:08.568Z,877.60
2022-07-31T02:56:08.557Z,884.80
2022-07-31T02:57:08.550Z,877.70
2022-07-31T02:58:08.540Z,878.70
2022-07-31T02:59:08.518Z,892.10
2022-07-31T03:00:08.506Z,883.90
2022-07-31T03:01:08.813Z,892.80
2022-07-31T03:02:08.480Z,887.70
2022-07-31T03:03:08.469Z,889.90
2022-07-31T03:04:08.458Z,892.60
2022-07-31T03:05:08.451Z,888.20
2022-07-31T03:06:08.435Z,884.20
2022-07-31T03:07:08.423Z,884.50
2022-07-31T03:08:08.409Z,882.30
2022-07-31T03:09:08.402Z,895.10
2022-07-31T03:10:08.392Z,880.70
2022-07-31T03:11:08.392Z,884.10
2022-07-31T03:12:08.462Z,890.10
2022-07-31T03:13:08.351Z,885.60
2022-07-31T03:14:08.361Z,891.60
2022-07-31T03:15:08.312Z,891.10
2022-07-31T03:16:08.290Z,888.70
2022-07-31T03:17:08.281Z,908.80
2022-07-31T03:18:11.455Z,895.80
2022-07-31T03:19:08.261Z,890.00
2022-07-31T03:20:08.243Z,902.80
2022-07-31T03:21:08.263Z,889.70
2022-07-31T03:22:12.179Z,899.60
2022-07-31T03:23:09.293Z,895.40
2022-07-31T03:24:08.194Z,885.60
2022-07-31T03:25:08.181Z,886.20
2022-07-31T03:26:08.180Z,882.90
2022-07-31T03:27:08.153Z,876.20
2022-07-31T03:28:08.141Z,874.80
2022-07-31T03:29:42.492Z,873.30
2022-07-31T03:30:09.133Z,879.00
2022-07-31T03:31:08.102Z,877.80
2022-07-31T03:32:08.081Z,873.10
2022-07-31T03:33:08.091Z,877.30
2022-07-31T03:34:08.492Z,884.10
2022-07-31T03:35:08.058Z,876.30
2022-07-31T03:36:08.031Z,877.50
2022-07-31T03:37:08.023Z,874.40
2022-07-31T03:38:38.603Z,882.30
2022-07-31T03:39:09.001Z,882.90
2022-07-31T03:40:07.994Z,889.20
2022-07-31T03:41:07.984Z,887.60
2022-07-31T03:42:07.951Z,876.60
2022-07-31T03:43:08.942Z,876.40
2022-07-31T03:44:07.933Z,886.30
2022-07-31T03:45:07.922Z,884.50
2022-07-31T03:46:07.910Z,884.20
2022-07-31T03:47:07.887Z,889.70
2022-07-31T03:48:07.876Z,881.30
2022-07-31T03:49:07.928Z,886.00
2022-07-31T03:50:07.852Z,887.10
2022-07-31T03:51:07.850Z,885.90
2022-07-31T03:52:11.898Z,882.80
2022-07-31T03:53:07.805Z,879.20
2022-07-31T03:54:07.804Z,885.70
2022-07-31T03:55:08.234Z,877.30
2022-07-31T03:56:07.767Z,885.00
2022-07-31T03:57:07.754Z,888.30
2022-07-31T03:58:07.755Z,888.20
2022-07-31T03:59:07.735Z,893.80
2022-07-31T04:00:12.391Z,899.60
2022-07-31T04:01:08.961Z,907.10
2022-07-31T04:02:07.832Z,904.10
2022-07-31T04:03:07.695Z,898.30
2022-07-31T04:04:07.664Z,908.30
2022-07-31T04:05:10.079Z,905.90
2022-07-31T04:06:07.754Z,908.30
2022-07-31T04:07:07.625Z,912.20
2022-07-31T04:08:07.607Z,916.80
2022-07-31T04:09:07.893Z,915.20
2022-07-31T04:10:08.577Z,908.50
2022-07-31T04:11:07.576Z,927.00
2022-07-31T04:12:07.930Z,925.60
2022-07-31T04:13:07.556Z,927.10
2022-07-31T04:14:07.526Z,917.00
2022-07-31T04:15:07.525Z,910.80
2022-07-31T04:16:07.497Z,912.00
2022-07-31T04:17:07.577Z,920.80
2022-07-31T04:18:07.485Z,911.80
2022-07-31T04:19:07.466Z,897.70
2022-07-31T04:20:07.475Z,904.20
2022-07-31T04:21:07.438Z,901.80
2022-07-31T04:22:07.724Z,902.20
2022-07-31T04:23:07.418Z,909.30
2022-07-31T04:24:07.426Z,922.50
2022-07-31T04:25:07.398Z,928.70
2022-07-31T04:26:07.377Z,925.50
2022-07-31T04:27:12.534Z,930.70
2022-07-31T04:28:08.619Z,932.30
2022-07-31T04:29:07.367Z,910.70
2022-07-31T04:30:07.328Z,891.50
2022-07-31T04:31:07.320Z,879.20
2022-07-31T04:32:07.592Z,869.60
2022-07-31T04:33:07.288Z,860.20
2022-07-31T04:34:07.269Z,860.20
2022-07-31T04:35:07.289Z,858.00
2022-07-31T04:36:07.240Z,854.90
2022-07-31T04:37:08.241Z,843.80
2022-07-31T04:38:07.227Z,841.90
2022-07-31T04:39:07.319Z,843.10
2022-07-31T04:40:07.217Z,822.00
2022-07-31T04:41:07.180Z,822.40
2022-07-31T04:42:11.278Z,826.00
2022-07-31T04:43:07.161Z,824.50
2022-07-31T04:44:07.137Z,831.60
2022-07-31T04:45:07.132Z,826.80
2022-07-31T04:46:17.497Z,826.80
2022-07-31T04:47:08.100Z,829.10
2022-07-31T04:48:07.107Z,828.30
2022-07-31T04:49:07.155Z,834.60
2022-07-31T04:50:07.223Z,850.60
2022-07-31T04:51:07.053Z,851.10
2022-07-31T04:52:07.248Z,863.00
2022-07-31T04:53:07.025Z,872.80
2022-07-31T04:54:07.001Z,869.20
2022-07-31T04:55:07.000Z,868.10
2022-07-31T04:56:06.981Z,873.90
2022-07-31T04:57:06.972Z,872.60
2022-07-31T04:58:06.954Z,874.70
2022-07-31T04:59:06.952Z,865.00
2022-07-31T05:00:06.923Z,871.10
2022-07-31T05:01:07.078Z,859.80
2022-07-31T05:02:07.440Z,852.30
2022-07-31T05:03:06.893Z,861.60
2022-07-31T05:04:06.872Z,850.50
2022-07-31T05:05:06.870Z,844.80
2022-07-31T05:06:06.843Z,839.70
2022-07-31T05:07:06.840Z,847.40
2022-07-31T05:08:06.814Z,850.80
2022-07-31T05:09:08.944Z,855.60
2022-07-31T05:10:06.796Z,840.60
2022-07-31T05:11:06.781Z,827.20
2022-07-31T05:12:07.277Z,836.40
2022-07-31T05:13:06.762Z,846.10
2022-07-31T05:14:06.742Z,854.90
2022-07-31T05:15:06.736Z,843.50
2022-07-31T05:16:06.717Z,841.60
2022-07-31T05:17:06.704Z,839.00
2022-07-31T05:18:06.696Z,837.40
2022-07-31T05:19:14.776Z,846.80
2022-07-31T05:20:07.674Z,851.90
2022-07-31T05:21:06.645Z,835.40
2022-07-31T05:22:06.882Z,852.30
2022-07-31T05:23:07.140Z,854.60
2022-07-31T05:24:06.604Z,852.70
2022-07-31T05:25:06.596Z,845.30
2022-07-31T05:26:06.576Z,835.60
2022-07-31T05:27:06.576Z,836.60
2022-07-31T05:28:08.893Z,842.50
2022-07-31T05:29:06.555Z,835.90
2022-07-31T05:30:06.526Z,850.10
2022-07-31T05:31:06.531Z,863.90
2022-07-31T05:32:06.496Z,849.50
2022-07-31T05:33:06.502Z,843.60
2022-07-31T05:34:06.530Z,857.10
2022-07-31T05:35:06.468Z,858.00
2022-07-31T05:36:06.449Z,859.20
2022-07-31T05:37:06.468Z,855.50
2022-07-31T05:38:06.445Z,857.30
2022-07-31T05:39:07.408Z,871.00
2022-07-31T05:40:06.396Z,876.40
2022-07-31T05:41:06.402Z,872.30
2022-07-31T05:42:06.921Z,871.30
2022-07-31T05:43:06.365Z,861.10
2022-07-31T05:44:06.403Z,854.40
2022-07-31T05:45:06.588Z,848.10
2022-07-31T05:46:06.340Z,843.50
2022-07-31T05:47:06.307Z,841.50
2022-07-31T05:48:06.306Z,844.40
2022-07-31T05:49:06.326Z,850.60
2022-07-31T05:50:06.260Z,857.70
2022-07-31T05:51:06.250Z,872.50
2022-07-31T05:52:06.780Z,875.10
2022-07-31T05:53:06.227Z,886.60
2022-07-31T05:54:06.221Z,877.80
2022-07-31T05:55:06.201Z,871.70
2022-07-31T05:56:06.311Z,847.80
2022-07-31T05:57:06.172Z,846.70
2022-07-31T05:58:06.160Z,845.00
2022-07-31T05:59:06.153Z,835.00
2022-07-31T06:00:06.131Z,814.80
2022-07-31T06:01:06.183Z,816.70
2022-07-31T06:02:06.581Z,813.00
2022-07-31T06:03:06.112Z,824.30
2022-07-31T06:04:06.097Z,816.80
2022-07-31T06:05:06.081Z,805.10
2022-07-31T06:06:06.052Z,813.10
2022-07-31T06:07:06.354Z,798.30
2022-07-31T06:08:06.024Z,789.10
2022-07-31T06:09:06.027Z,790.30
2022-07-31T06:10:06.003Z,771.80
2022-07-31T06:11:05.990Z,770.30
2022-07-31T06:12:06.286Z,765.50
2022-07-31T06:13:05.977Z,793.30
2022-07-31T06:14:05.945Z,759.40
2022-07-31T06:15:05.933Z,759.60
2022-07-31T06:16:05.928Z,764.60
2022-07-31T06:17:05.912Z,744.70
2022-07-31T06:18:05.965Z,744.20
2022-07-31T06:19:05.888Z,736.10
2022-07-31T06:20:05.866Z,745.70
2022-07-31T06:21:05.855Z,746.20
2022-07-31T06:22:06.152Z,746.80
2022-07-31T06:23:19.813Z,752.00
2022-07-31T06:24:06.817Z,748.80
2022-07-31T06:25:05.817Z,760.80
2022-07-31T06:26:05.901Z,761.50
2022-07-31T06:27:05.785Z,778.60
2022-07-31T06:28:10.321Z,770.70
2022-07-31T06:29:06.836Z,773.00
2022-07-31T06:30:05.749Z,789.10
2022-07-31T06:31:05.728Z,790.00
2022-07-31T06:32:06.058Z,798.00
2022-07-31T06:33:08.239Z,787.70
2022-07-31T06:34:05.694Z,790.10
2022-07-31T06:35:05.677Z,791.30
2022-07-31T06:36:05.660Z,772.90
2022-07-31T06:37:05.651Z,775.60
2022-07-31T06:38:05.631Z,767.90
2022-07-31T06:39:05.619Z,768.90
2022-07-31T06:40:05.760Z,767.00
2022-07-31T06:41:05.599Z,759.30
2022-07-31T06:42:05.979Z,764.60
2022-07-31T06:43:06.972Z,759.50
2022-07-31T06:44:05.559Z,753.80
2022-07-31T06:45:05.540Z,748.60
2022-07-31T06:46:05.574Z,748.00
2022-07-31T06:47:05.520Z,755.50
2022-07-31T06:48:06.510Z,758.20
2022-07-31T06:49:08.764Z,753.80
2022-07-31T06:50:05.488Z,730.30
2022-07-31T06:51:29.804Z,708.50
2022-07-31T06:52:06.798Z,711.20
2022-07-31T06:53:05.442Z,704.00
2022-07-31T06:54:05.424Z,694.10
2022-07-31T06:55:05.442Z,694.20
2022-07-31T06:56:05.402Z,684.40
2022-07-31T06:57:05.391Z,687.90
2022-07-31T06:58:05.379Z,669.30
2022-07-31T06:59:05.362Z,671.60
2022-07-31T07:00:20.650Z,661.60
2022-07-31T07:01:06.399Z,668.90
2022-07-31T07:02:05.712Z,667.90
2022-07-31T07:03:05.324Z,665.70
2022-07-31T07:04:05.295Z,671.20
2022-07-31T07:05:06.957Z,665.70
2022-07-31T07:06:05.299Z,701.80
2022-07-31T07:07:05.266Z,676.10
2022-07-31T07:08:05.256Z,685.90
2022-07-31T07:09:05.224Z,680.70
2022-07-31T07:10:05.229Z,701.30
2022-07-31T07:11:05.198Z,705.80
2022-07-31T07:12:05.557Z,704.90
2022-07-31T07:13:05.204Z,727.40
2022-07-31T07:14:05.168Z,723.50
2022-07-31T07:15:05.154Z,729.10
2022-07-31T07:16:05.153Z,737.50
2022-07-31T07:17:05.129Z,741.00
2022-07-31T07:18:05.115Z,756.60
2022-07-31T07:19:05.108Z,736.90
2022-07-31T07:20:05.097Z,746.50
2022-07-31T07:21:05.123Z,752.60
2022-07-31T07:22:05.513Z,745.30
2022-07-31T07:23:05.212Z,745.60
2022-07-31T07:24:05.046Z,760.60
2022-07-31T07:25:05.018Z,755.10
2022-07-31T07:26:05.018Z,748.00
2022-07-31T07:27:04.994Z,760.50
2022-07-31T07:28:04.989Z,764.00
2022-07-31T07:29:04.970Z,760.80
2022-07-31T07:30:04.958Z,745.20
2022-07-31T07:31:04.939Z,757.20
2022-07-31T07:32:05.115Z,766.50
2022-07-31T07:33:04.919Z,748.70
2022-07-31T07:34:04.930Z,740.40
2022-07-31T07:35:04.885Z,744.00
2022-07-31T07:36:04.883Z,743.60
2022-07-31T07:37:04.871Z,746.00
2022-07-31T07:38:04.851Z,741.30
2022-07-31T07:39:04.832Z,731.30
2022-07-31T07:40:04.838Z,730.70
2022-07-31T07:41:04.811Z,738.20
2022-07-31T07:42:05.111Z,743.00
2022-07-31T07:43:04.786Z,732.90
2022-07-31T07:44:04.807Z,761.10
2022-07-31T07:45:08.078Z,767.70
2022-07-31T07:46:04.744Z,769.60
2022-07-31T07:47:04.752Z,769.60
2022-07-31T07:48:06.616Z,769.20
2022-07-31T07:49:04.790Z,748.60
2022-07-31T07:50:04.705Z,748.90
2022-07-31T07:51:04.685Z,733.50
2022-07-31T07:52:04.674Z,725.90
2022-07-31T07:53:04.663Z,718.80
2022-07-31T07:54:04.647Z,725.90
2022-07-31T07:55:04.656Z,723.10
2022-07-31T07:56:04.655Z,729.50
2022-07-31T07:57:04.615Z,722.80
2022-07-31T07:58:07.707Z,715.30
2022-07-31T07:59:05.585Z,715.80
2022-07-31T08:00:05.568Z,707.90
2022-07-31T08:01:04.661Z,713.20
2022-07-31T08:02:04.745Z,700.60
2022-07-31T08:03:49.000Z,695.70
2022-07-31T08:04:05.524Z,691.70
2022-07-31T08:05:04.499Z,686.50
2022-07-31T08:06:04.489Z,702.40
2022-07-31T08:07:04.567Z,694.60
2022-07-31T08:08:04.465Z,693.50
2022-07-31T08:09:04.448Z,684.30
2022-07-31T08:10:04.438Z,707.80
2022-07-31T08:11:04.438Z,698.30
2022-07-31T08:12:04.626Z,700.50
2022-07-31T08:13:04.390Z,703.60
2022-07-31T08:14:04.391Z,699.30
2022-07-31T08:15:04.373Z,690.10
2022-07-31T08:16:04.360Z,684.40
2022-07-31T08:17:04.354Z,686.60
2022-07-31T08:18:04.402Z,688.50
2022-07-31T08:19:04.327Z,688.00
2022-07-31T08:20:04.338Z,689.20
2022-07-31T08:21:04.291Z,698.30
2022-07-31T08:22:04.581Z,695.30
2022-07-31T08:23:04.263Z,694.30
2022-07-31T08:24:04.254Z,708.40
2022-07-31T08:25:05.427Z,705.30
2022-07-31T08:26:04.233Z,700.10
2022-07-31T08:27:04.212Z,697.30
2022-07-31T08:28:05.687Z,705.50
2022-07-31T08:29:05.100Z,702.50
2022-07-31T08:30:04.184Z,695.50
2022-07-31T08:31:04.186Z,697.20
2022-07-31T08:32:04.357Z,690.20
2022-07-31T08:33:04.147Z,698.90
2022-07-31T08:34:04.127Z,696.50
2022-07-31T08:35:04.117Z,703.40
2022-07-31T08:36:04.108Z,704.80
2022-07-31T08:37:52.338Z,705.10
2022-07-31T08:38:05.162Z,697.80
2022-07-31T08:39:04.468Z,705.20
2022-07-31T08:40:04.058Z,708.10
2022-07-31T08:41:04.038Z,713.70
2022-07-31T08:42:04.292Z,710.70
2022-07-31T08:43:19.360Z,722.10
2022-07-31T08:44:05.013Z,720.00
2022-07-31T08:45:03.978Z,709.30
2022-07-31T08:46:03.978Z,711.40
2022-07-31T08:47:03.960Z,722.80
2022-07-31T08:48:03.989Z,719.60
2022-07-31T08:49:04.074Z,741.00
2022-07-31T08:50:04.290Z,724.20
2022-07-31T08:51:03.915Z,719.10
2022-07-31T08:52:04.163Z,712.10
2022-07-31T08:53:03.889Z,714.50
2022-07-31T08:54:03.871Z,737.90
2022-07-31T08:55:03.871Z,720.70
2022-07-31T08:56:03.850Z,717.10
2022-07-31T08:57:04.117Z,749.80
2022-07-31T08:58:03.821Z,701.50
2022-07-31T08:59:03.841Z,717.90
2022-07-31T09:00:03.793Z,711.50
2022-07-31T09:01:03.997Z,716.30
2022-07-31T09:02:03.974Z,703.70
2022-07-31T09:03:03.752Z,715.40
2022-07-31T09:04:03.753Z,705.20
2022-07-31T09:05:03.759Z,720.80
2022-07-31T09:06:03.722Z,706.30
2022-07-31T09:07:04.053Z,715.20
2022-07-31T09:08:03.694Z,713.20
2022-07-31T09:09:04.672Z,716.00
2022-07-31T09:10:03.764Z,703.80
2022-07-31T09:11:06.023Z,710.90
2022-07-31T09:12:03.723Z,715.30
2022-07-31T09:13:03.635Z,708.30
2022-07-31T09:14:03.704Z,706.40
2022-07-31T09:15:03.618Z,694.40
2022-07-31T09:16:03.586Z,708.70
2022-07-31T09:17:03.813Z,706.10
2022-07-31T09:18:03.576Z,712.40
2022-07-31T09:19:03.549Z,714.80
2022-07-31T09:20:04.537Z,703.80
2022-07-31T09:21:03.529Z,721.40
2022-07-31T09:22:07.181Z,739.70
2022-07-31T09:23:04.597Z,726.30
2022-07-31T09:24:03.500Z,728.50
2022-07-31T09:25:03.478Z,749.70
2022-07-31T09:26:03.470Z,744.00
2022-07-31T09:27:05.530Z,737.30
2022-07-31T09:28:03.525Z,738.80
2022-07-31T09:29:03.445Z,725.40
2022-07-31T09:30:03.438Z,736.00
2022-07-31T09:31:03.389Z,732.20
2022-07-31T09:32:03.458Z,731.60
2022-07-31T09:33:03.373Z,736.10
2022-07-31T09:34:03.550Z,744.00
2022-07-31T09:35:03.343Z,737.50
2022-07-31T09:36:03.341Z,722.30
2022-07-31T09:37:03.674Z,741.60
2022-07-31T09:38:04.537Z,728.00
2022-07-31T09:39:04.174Z,721.20
2022-07-31T09:40:03.334Z,726.80
2022-07-31T09:41:03.262Z,719.30
2022-07-31T09:42:16.615Z,729.40
2022-07-31T09:43:04.277Z,725.60
2022-07-31T09:44:10.306Z,725.50
2022-07-31T09:45:04.397Z,722.50
2022-07-31T09:46:03.214Z,727.50
2022-07-31T09:47:03.441Z,728.90
2022-07-31T09:48:03.193Z,730.00
2022-07-31T09:49:03.213Z,718.60
2022-07-31T09:50:03.163Z,725.50
2022-07-31T09:51:03.161Z,722.60
2022-07-31T09:52:03.144Z,700.40
2022-07-31T09:53:03.118Z,698.70
2022-07-31T09:54:03.103Z,696.00
2022-07-31T09:55:03.106Z,705.70
2022-07-31T09:56:04.305Z,705.50
2022-07-31T09:57:03.286Z,704.90
2022-07-31T09:58:03.068Z,701.20
2022-07-31T09:59:03.075Z,706.30
2022-07-31T10:00:03.027Z,705.90
2022-07-31T10:01:03.070Z,700.30
2022-07-31T10:02:03.009Z,685.10
2022-07-31T10:03:02.988Z,687.10
2022-07-31T10:04:02.983Z,688.90
2022-07-31T10:05:02.959Z,705.30
2022-07-31T10:06:02.959Z,705.50
2022-07-31T10:07:03.403Z,709.00
2022-07-31T10:08:02.930Z,703.40
2022-07-31T10:09:02.910Z,683.80
2022-07-31T10:10:02.911Z,683.30
2022-07-31T10:11:02.887Z,684.00
2022-07-31T10:12:02.883Z,683.10
2022-07-31T10:13:02.861Z,673.80
2022-07-31T10:14:02.876Z,680.20
2022-07-31T10:15:02.836Z,663.60
2022-07-31T10:16:02.822Z,674.90
2022-07-31T10:17:03.075Z,671.30
2022-07-31T10:18:02.984Z,673.30
2022-07-31T10:19:02.785Z,655.70
2022-07-31T10:20:02.783Z,658.20
2022-07-31T10:21:02.753Z,671.70
2022-07-31T10:22:02.765Z,670.10
2022-07-31T10:23:02.724Z,657.10
2022-07-31T10:24:02.723Z,667.80
2022-07-31T10:25:02.706Z,683.10
2022-07-31T10:26:02.694Z,667.80
2022-07-31T10:27:10.384Z,683.40
2022-07-31T10:28:03.736Z,676.90
2022-07-31T10:29:02.655Z,687.60
2022-07-31T10:30:02.650Z,684.90
2022-07-31T10:31:02.640Z,677.70
2022-07-31T10:32:02.629Z,686.20
2022-07-31T10:33:02.606Z,687.20
2022-07-31T10:34:02.597Z,678.40
2022-07-31T10:35:02.580Z,671.00
2022-07-31T10:36:02.566Z,671.40
2022-07-31T10:37:02.984Z,709.70
2022-07-31T10:38:02.553Z,668.50
2022-07-31T10:39:03.240Z,689.00
2022-07-31T10:40:02.548Z,681.80
2022-07-31T10:41:02.529Z,695.60
2022-07-31T10:42:02.509Z,704.10
2022-07-31T10:43:03.092Z,709.40
2022-07-31T10:44:02.468Z,690.40
2022-07-31T10:45:02.557Z,727.50
2022-07-31T10:46:02.440Z,714.60
2022-07-31T10:47:02.677Z,742.40
2022-07-31T10:48:02.423Z,729.80
2022-07-31T10:49:08.248Z,722.10
2022-07-31T10:50:03.571Z,744.60
2022-07-31T10:51:02.371Z,750.70
2022-07-31T10:52:02.366Z,754.10
2022-07-31T10:53:02.355Z,753.90
2022-07-31T10:54:02.330Z,747.70
2022-07-31T10:55:02.342Z,748.30
2022-07-31T10:56:02.313Z,756.40
2022-07-31T10:57:02.595Z,772.70
2022-07-31T10:58:02.289Z,726.30
2022-07-31T10:59:02.285Z,735.80
2022-07-31T11:00:02.254Z,731.40
2022-07-31T11:01:02.384Z,737.30
2022-07-31T11:02:02.254Z,737.10
2022-07-31T11:03:02.224Z,735.00
2022-07-31T11:04:03.205Z,747.70
2022-07-31T11:05:02.209Z,723.30
2022-07-31T11:06:03.258Z,727.10
2022-07-31T11:07:02.369Z,728.40
2022-07-31T11:08:02.155Z,723.40
2022-07-31T11:09:02.179Z,722.60
2022-07-31T11:10:02.161Z,734.60
2022-07-31T11:11:03.684Z,731.90
2022-07-31T11:12:02.468Z,707.70
2022-07-31T11:13:02.102Z,758.50
2022-07-31T11:14:02.082Z,761.50
2022-07-31T11:15:02.078Z,757.30
2022-07-31T11:16:02.047Z,772.00
2022-07-31T11:17:02.335Z,763.10
2022-07-31T11:18:23.781Z,773.80
2022-07-31T11:19:03.021Z,773.70
2022-07-31T11:20:01.998Z,757.30
2022-07-31T11:21:17.359Z,774.90
2022-07-31T11:22:32.280Z,777.90
2022-07-31T11:23:02.970Z,779.10
2022-07-31T11:24:04.226Z,753.80
2022-07-31T11:25:01.942Z,750.90
2022-07-31T11:26:01.922Z,731.10
2022-07-31T11:27:02.388Z,764.60
2022-07-31T11:28:01.927Z,748.50
2022-07-31T11:30:00.319Z,739.30
2022-07-31T11:30:06.672Z,742.00
2022-07-31T11:31:02.862Z,753.60
2022-07-31T11:32:01.863Z,757.60
2022-07-31T11:33:01.893Z,771.00
2022-07-31T11:34:01.823Z,772.80
2022-07-31T11:35:01.832Z,759.60
2022-07-31T11:36:01.806Z,757.30
2022-07-31T11:37:01.786Z,763.90
2022-07-31T11:38:01.784Z,762.70
2022-07-31T11:39:01.784Z,748.50
2022-07-31T11:40:01.756Z,745.90
2022-07-31T11:41:01.734Z,753.90
2022-07-31T11:42:01.717Z,742.80
2022-07-31T11:44:02.816Z,742.00
2022-07-31T11:45:01.690Z,744.90
2022-07-31T11:46:02.666Z,750.60
2022-07-31T11:47:02.153Z,741.00
2022-07-31T11:48:10.868Z,765.20
2022-07-31T11:49:02.673Z,758.10
2022-07-31T11:50:01.772Z,760.50
2022-07-31T11:51:01.616Z,756.70
2022-07-31T11:52:01.603Z,771.40
2022-07-31T11:53:01.599Z,767.80
2022-07-31T11:54:01.568Z,757.50
2022-07-31T11:55:06.747Z,763.80
2022-07-31T11:56:02.538Z,769.80
2022-07-31T11:57:01.658Z,760.90
2022-07-31T11:58:01.521Z,773.70
2022-07-31T11:59:01.532Z,758.10
2022-07-31T12:00:01.500Z,755.10
2022-07-31T12:01:02.482Z,757.70
2022-07-31T12:02:01.474Z,776.40
2022-07-31T12:03:01.538Z,763.90
2022-07-31T12:04:08.769Z,783.50
2022-07-31T12:05:02.461Z,750.40
2022-07-31T12:06:01.425Z,789.70
2022-07-31T12:07:01.833Z,775.10
2022-07-31T12:08:01.616Z,749.90
2022-07-31T12:09:01.393Z,741.40
2022-07-31T12:10:03.516Z,754.30
2022-07-31T12:11:01.373Z,736.50
2022-07-31T12:12:01.357Z,728.30
2022-07-31T12:13:01.336Z,753.00
2022-07-31T12:14:01.303Z,729.60
2022-07-31T12:15:01.309Z,691.10
2022-07-31T12:16:01.440Z,703.40
2022-07-31T12:17:01.498Z,718.60
2022-07-31T12:18:01.274Z,738.40
2022-07-31T12:19:01.260Z,716.00
2022-07-31T12:20:01.245Z,724.70
2022-07-31T12:21:01.227Z,707.00
2022-07-31T12:22:01.217Z,690.50
2022-07-31T12:23:01.207Z,696.20
2022-07-31T12:24:01.189Z,725.30
2022-07-31T12:25:03.985Z,736.90
2022-07-31T12:26:02.168Z,723.70
2022-07-31T12:27:01.159Z,710.80
2022-07-31T12:28:01.150Z,684.20
2022-07-31T12:29:01.128Z,716.90